aviador You're here:

EPGD Decoded Metar

GDANSK in POLAND
Report Time2018-01-17 05:00:00
UTC Time2018-01-17 05:16:52
Flight Rules ifr IFR
Wind230° at 04 kt
W.Decomp.*RWY 29: 1.7 kt HW 3.6 kt LCW
W.Rank230° ranks 7
Current wind is below 230° avg. (6.6)
Visibility1600 m
Phenomena:Light Snow
Mist
Clouds:Scattered 010 Hf
Broken 017 Hf
Ceiling1,700 ft
Temp-1°C (ISA -15)
Dew Point-1°C (100% RH)
AAT-4.6°C
QNH0986 hPa
Density Alt-381 ft
Elevation453 ft
Report Wrong Elevation
Raw Report
EPGD 170500Z 23004KT 1600 -SN BR SCT010 BKN017 M01/M01 Q0986
R11/690294=

Extra information for EPGD:More info

Metar Taf Metar & Taf Last 4 Metars F.Rules Stats Wind Profile Meteogram Temp Stats Airport Information Weather charts Add Link Nearby VenuesMetar ALERT Operation Metar Decoded Social comments